createdAt,value
2023-02-06T00:00:47.952Z,5.25
2023-02-06T00:03:14.315Z,5.47
2023-02-06T00:05:40.933Z,6.45
2023-02-06T00:08:07.731Z,5.88
2023-02-06T00:10:34.229Z,6.28
2023-02-06T00:13:00.949Z,5.30
2023-02-06T00:15:27.296Z,5.85
2023-02-06T00:17:53.687Z,5.70
2023-02-06T00:20:20.247Z,5.65
2023-02-06T00:22:46.611Z,6.20
2023-02-06T00:25:12.942Z,6.43
2023-02-06T00:27:39.493Z,5.43
2023-02-06T00:30:06.365Z,6.22
2023-02-06T00:32:34.637Z,5.85
2023-02-06T00:35:01.195Z,5.93
2023-02-06T00:37:27.552Z,5.95
2023-02-06T00:39:53.893Z,6.45
2023-02-06T00:42:20.708Z,6.22
2023-02-06T00:44:47.233Z,6.32
2023-02-06T00:47:13.557Z,6.85
2023-02-06T00:49:39.916Z,6.53
2023-02-06T00:52:06.393Z,6.13
2023-02-06T00:54:32.790Z,5.22
2023-02-06T00:56:59.117Z,6.00
2023-02-06T00:59:25.490Z,6.65
2023-02-06T01:01:51.850Z,6.47
2023-02-06T01:04:18.276Z,6.80
2023-02-06T01:06:44.633Z,6.57
2023-02-06T01:09:11.049Z,6.03
2023-02-06T01:11:37.549Z,6.38
2023-02-06T01:14:04.085Z,6.03
2023-02-06T01:16:30.454Z,5.85
2023-02-06T01:18:56.834Z,5.32
2023-02-06T01:21:25.164Z,6.10
2023-02-06T01:23:53.808Z,5.80
2023-02-06T01:26:23.120Z,5.25
2023-02-06T01:28:50.086Z,5.30
2023-02-06T01:31:24.377Z,5.22
2023-02-06T01:33:51.756Z,6.30
2023-02-06T01:36:19.937Z,4.80
2023-02-06T01:38:47.434Z,5.78
2023-02-06T01:41:16.651Z,6.22
2023-02-06T01:43:46.548Z,6.18
2023-02-06T01:46:13.227Z,5.47
2023-02-06T01:48:42.899Z,6.40
2023-02-06T01:51:15.047Z,6.00
2023-02-06T01:53:43.744Z,5.57
2023-02-06T01:56:11.312Z,5.57
2023-02-06T01:58:43.100Z,5.10
2023-02-06T02:01:10.021Z,5.45
2023-02-06T02:03:39.609Z,5.28
2023-02-06T02:06:08.760Z,6.22
2023-02-06T02:08:41.050Z,6.18
2023-02-06T02:11:09.284Z,5.07
2023-02-06T02:13:38.169Z,5.38
2023-02-06T02:16:18.122Z,5.07
2023-02-06T02:18:54.980Z,5.75
2023-02-06T02:22:03.490Z,5.53
2023-02-06T02:25:05.156Z,5.22
2023-02-06T02:28:09.204Z,5.00
2023-02-06T02:31:13.232Z,5.38
2023-02-06T02:34:07.642Z,5.65
2023-02-06T02:36:49.100Z,4.78
2023-02-06T02:39:29.198Z,4.35
2023-02-06T02:42:08.551Z,4.35
2023-02-06T02:44:50.376Z,5.13
2023-02-06T02:47:21.012Z,4.78
2023-02-06T02:49:48.396Z,4.78
2023-02-06T02:52:15.996Z,4.72
2023-02-06T02:54:42.609Z,4.20
2023-02-06T02:57:16.135Z,4.13
2023-02-06T02:59:46.350Z,4.85
2023-02-06T03:02:18.827Z,5.38
2023-02-06T03:04:51.167Z,4.97
2023-02-06T03:07:32.772Z,4.55
2023-02-06T03:10:11.765Z,4.30
2023-02-06T03:12:45.042Z,4.22
2023-02-06T03:15:26.860Z,6.32
2023-02-06T03:18:02.478Z,4.47
2023-02-06T03:22:58.328Z,3.55
2023-02-06T03:25:37.059Z,3.35
2023-02-06T03:28:08.037Z,4.32
2023-02-06T03:30:35.180Z,4.25
2023-02-06T03:33:06.053Z,4.88
2023-02-06T03:35:36.077Z,4.40
2023-02-06T03:38:04.956Z,4.13
2023-02-06T03:40:31.705Z,4.63
2023-02-06T03:43:02.685Z,4.47
2023-02-06T03:45:44.125Z,4.43
2023-02-06T03:48:17.237Z,4.20
2023-02-06T03:50:45.639Z,4.60
2023-02-06T03:53:14.481Z,4.53
2023-02-06T03:55:43.192Z,5.50
2023-02-06T03:58:13.889Z,4.05
2023-02-06T04:00:43.316Z,4.88
2023-02-06T04:03:11.021Z,4.78
2023-02-06T04:05:37.965Z,4.93
2023-02-06T04:08:04.860Z,4.47
2023-02-06T04:10:31.326Z,5.07
2023-02-06T04:12:57.781Z,3.95
2023-02-06T04:15:24.209Z,4.57
2023-02-06T04:18:00.063Z,4.53
2023-02-06T04:20:27.675Z,4.18
2023-02-06T04:22:54.060Z,4.00
2023-02-06T04:25:20.476Z,3.78
2023-02-06T04:27:46.921Z,4.38
2023-02-06T04:30:13.663Z,4.25
2023-02-06T04:32:40.004Z,3.92
2023-02-06T04:35:06.548Z,4.35
2023-02-06T04:37:33.205Z,4.43
2023-02-06T04:39:59.608Z,3.72
2023-02-06T04:42:26.035Z,4.07
2023-02-06T04:44:52.450Z,4.88
2023-02-06T04:47:18.878Z,3.92
2023-02-06T04:49:45.224Z,4.20
2023-02-06T04:52:11.581Z,4.90
2023-02-06T04:54:38.076Z,4.07
2023-02-06T04:57:04.415Z,4.15
2023-02-06T04:59:30.908Z,4.53
2023-02-06T05:01:57.277Z,4.43
2023-02-06T05:04:23.640Z,4.10
2023-02-06T05:06:50.163Z,3.97
2023-02-06T05:09:16.488Z,3.88
2023-02-06T05:11:42.850Z,4.90
2023-02-06T05:14:09.347Z,3.83
2023-02-06T05:16:35.745Z,5.07
2023-02-06T05:19:02.101Z,4.85
2023-02-06T05:21:28.735Z,4.47
2023-02-06T05:23:55.340Z,4.72
2023-02-06T05:26:21.824Z,4.30
2023-02-06T05:28:48.279Z,7.90
2023-02-06T05:31:19.585Z,7.95
2023-02-06T05:33:51.150Z,7.68
2023-02-06T05:36:19.168Z,6.95
2023-02-06T05:38:45.790Z,6.50
2023-02-06T05:41:12.247Z,6.45
2023-02-06T05:43:38.675Z,6.15
2023-02-06T05:46:05.254Z,4.65
2023-02-06T05:48:34.353Z,5.65
2023-02-06T05:51:01.626Z,5.53
2023-02-06T05:53:28.058Z,5.18
2023-02-06T05:55:54.557Z,4.65
2023-02-06T05:58:20.919Z,4.38
2023-02-06T06:00:47.295Z,5.28
2023-02-06T06:03:13.694Z,4.35
2023-02-06T06:05:40.176Z,4.88
2023-02-06T06:08:06.803Z,4.70
2023-02-06T06:10:33.224Z,4.22
2023-02-06T06:12:59.838Z,4.32
2023-02-06T06:15:26.283Z,5.93
2023-02-06T06:17:52.808Z,5.93
2023-02-06T06:20:19.197Z,7.13
2023-02-06T06:22:45.537Z,8.40
2023-02-06T06:25:12.077Z,7.18
2023-02-06T06:27:39.235Z,7.00
2023-02-06T06:30:06.158Z,5.40
2023-02-06T06:32:32.482Z,6.85
2023-02-06T06:34:58.819Z,5.60
2023-02-06T06:37:25.195Z,4.63
2023-02-06T06:39:51.643Z,4.22
2023-02-06T06:42:18.029Z,4.78
2023-02-06T06:44:44.536Z,5.07
2023-02-06T06:47:10.909Z,4.10
2023-02-06T06:49:37.344Z,4.47
2023-02-06T06:52:07.038Z,4.53
2023-02-06T06:54:35.265Z,4.10
2023-02-06T06:57:01.601Z,4.95
2023-02-06T06:59:28.088Z,4.90
2023-02-06T07:01:54.496Z,8.77
2023-02-06T07:04:21.123Z,8.30
2023-02-06T07:06:47.601Z,11.27
2023-02-06T07:09:14.603Z,7.00
2023-02-06T07:11:41.390Z,5.50
2023-02-06T07:14:08.047Z,5.63
2023-02-06T07:16:34.467Z,5.18
2023-02-06T07:19:00.862Z,5.75
2023-02-06T07:21:27.212Z,5.65
2023-02-06T07:23:53.678Z,6.38
2023-02-06T07:26:20.169Z,8.95
2023-02-06T07:28:49.077Z,26.88
2023-02-06T07:31:16.131Z,16.05
2023-02-06T07:33:42.472Z,18.25
2023-02-06T07:36:13.764Z,8.60
2023-02-06T07:38:40.775Z,6.90
2023-02-06T07:41:07.891Z,6.25
2023-02-06T07:43:34.560Z,5.88
2023-02-06T07:46:02.107Z,5.20
2023-02-06T07:48:29.068Z,4.65
2023-02-06T07:50:55.563Z,4.28
2023-02-06T07:53:22.365Z,4.82
2023-02-06T07:55:49.074Z,4.72
2023-02-06T07:58:15.604Z,3.97
2023-02-06T08:00:42.081Z,3.90
2023-02-06T08:03:09.601Z,4.50
2023-02-06T08:05:39.255Z,4.68
2023-02-06T08:08:07.325Z,4.25
2023-02-06T08:10:33.719Z,4.65
2023-02-06T08:13:00.111Z,4.40
2023-02-06T08:15:26.564Z,4.80
2023-02-06T08:17:53.143Z,4.53
2023-02-06T08:20:19.623Z,4.25
2023-02-06T08:22:46.595Z,4.13
2023-02-06T08:25:13.022Z,4.55
2023-02-06T08:27:39.380Z,4.43
2023-02-06T08:30:06.267Z,4.60
2023-02-06T08:32:34.303Z,4.72
2023-02-06T08:35:00.781Z,4.82
2023-02-06T08:37:27.524Z,4.40
2023-02-06T08:39:53.880Z,4.97
2023-02-06T08:42:20.226Z,5.85
2023-02-06T08:44:46.639Z,5.25
2023-02-06T08:47:13.426Z,5.57
2023-02-06T08:49:39.899Z,4.72
2023-02-06T08:52:06.363Z,5.88
2023-02-06T08:54:35.496Z,5.40
2023-02-06T08:57:03.160Z,5.53
2023-02-06T08:59:30.956Z,5.90
2023-02-06T09:01:57.351Z,5.80
2023-02-06T09:04:23.801Z,5.82
2023-02-06T09:06:51.917Z,5.82
2023-02-06T09:09:19.005Z,5.57
2023-02-06T09:11:45.364Z,5.43
2023-02-06T09:14:17.111Z,4.95
2023-02-06T09:16:43.679Z,5.90
2023-02-06T09:19:12.687Z,5.68
2023-02-06T09:21:39.075Z,5.70
2023-02-06T09:24:08.045Z,5.47
2023-02-06T09:26:58.101Z,5.70
2023-02-06T09:29:25.806Z,5.38
2023-02-06T09:31:52.273Z,5.80
2023-02-06T09:34:18.618Z,6.57
2023-02-06T09:36:45.777Z,5.93
2023-02-06T09:39:12.226Z,6.43
2023-02-06T09:41:48.113Z,6.32
2023-02-06T09:44:24.520Z,6.13
2023-02-06T09:47:06.394Z,6.35
2023-02-06T09:49:39.950Z,6.45
2023-02-06T09:52:19.433Z,6.28
2023-02-06T09:55:03.584Z,6.05
2023-02-06T09:57:57.540Z,6.15
2023-02-06T10:00:32.726Z,6.65
2023-02-06T10:03:30.325Z,6.70
2023-02-06T10:06:14.993Z,6.90
2023-02-06T10:08:53.965Z,7.05
2023-02-06T10:11:34.889Z,7.18
2023-02-06T10:14:06.581Z,6.80
2023-02-06T10:16:43.191Z,7.47
2023-02-06T10:19:33.790Z,7.18
2023-02-06T10:22:04.899Z,8.07
2023-02-06T10:24:46.282Z,7.85
2023-02-06T10:27:15.002Z,7.70
2023-02-06T10:29:44.996Z,7.47
2023-02-06T10:32:26.994Z,7.90
2023-02-06T10:35:05.740Z,7.43
2023-02-06T10:37:32.159Z,7.10
2023-02-06T10:40:22.713Z,8.18
2023-02-06T10:43:07.407Z,7.18
2023-02-06T10:45:55.515Z,6.93
2023-02-06T10:48:32.809Z,6.95
2023-02-06T10:51:14.747Z,6.70
2023-02-06T10:53:53.185Z,6.72
2023-02-06T10:56:27.282Z,7.93
2023-02-06T10:58:58.728Z,8.18
2023-02-06T11:01:29.615Z,7.78
2023-02-06T11:03:58.793Z,8.18
2023-02-06T11:06:28.096Z,7.43
2023-02-06T11:08:54.533Z,7.47
2023-02-06T11:11:23.415Z,8.15
2023-02-06T11:14:04.277Z,7.55
2023-02-06T11:16:35.957Z,8.25
2023-02-06T11:19:16.461Z,9.00
2023-02-06T11:21:47.583Z,8.25
2023-02-06T11:24:16.225Z,9.50
2023-02-06T11:26:46.891Z,9.02
2023-02-06T11:29:27.021Z,10.18
2023-02-06T11:31:58.583Z,9.80
2023-02-06T11:34:38.846Z,9.75
2023-02-06T11:37:26.525Z,10.25
2023-02-06T11:39:53.477Z,9.25
2023-02-06T11:42:22.452Z,9.15
2023-02-06T11:44:49.137Z,9.95
2023-02-06T11:47:30.198Z,10.63
2023-02-06T11:50:36.038Z,10.50
2023-02-06T11:53:14.797Z,10.00
2023-02-06T11:56:15.891Z,9.73
2023-02-06T11:58:42.902Z,10.95
2023-02-06T12:01:18.750Z,10.73
2023-02-06T12:06:30.583Z,9.85
2023-02-06T12:11:57.752Z,11.05
2023-02-06T12:14:40.116Z,12.40
2023-02-06T12:17:30.931Z,12.02
2023-02-06T12:20:03.963Z,11.65
2023-02-06T12:22:36.629Z,10.60
2023-02-06T12:25:04.786Z,10.85
2023-02-06T12:27:39.558Z,11.52
2023-02-06T12:30:08.868Z,11.23
2023-02-06T12:32:42.862Z,12.77
2023-02-06T12:35:21.944Z,13.15
2023-02-06T12:37:55.221Z,13.57
2023-02-06T12:40:33.722Z,13.20
2023-02-06T12:43:03.033Z,13.63
2023-02-06T12:45:52.175Z,13.35
2023-02-06T12:48:30.736Z,13.60
2023-02-06T12:51:23.909Z,22.15
2023-02-06T12:54:30.016Z,28.67
2023-02-06T12:57:06.712Z,18.17
2023-02-06T13:00:13.105Z,17.20
2023-02-06T13:03:17.863Z,15.68
2023-02-06T13:05:49.041Z,14.40
2023-02-06T13:08:26.782Z,13.70
2023-02-06T13:11:05.968Z,13.15
2023-02-06T13:13:36.690Z,12.85
2023-02-06T13:16:04.565Z,11.55
2023-02-06T13:18:50.490Z,12.90
2023-02-06T13:21:37.897Z,12.40
2023-02-06T13:24:04.230Z,12.75
2023-02-06T13:26:46.239Z,10.80
2023-02-06T13:29:42.413Z,8.75
2023-02-06T13:32:22.650Z,8.50
2023-02-06T13:34:48.939Z,7.22
2023-02-06T13:37:32.483Z,8.07
2023-02-06T13:40:23.167Z,6.95
2023-02-06T13:43:00.972Z,6.50
2023-02-06T13:45:40.449Z,7.65
2023-02-06T13:48:25.085Z,7.50
2023-02-06T13:50:59.412Z,7.57
2023-02-06T13:54:08.008Z,7.82
2023-02-06T13:56:52.006Z,8.98
2023-02-06T13:59:24.273Z,7.25
2023-02-06T14:01:51.544Z,7.53
2023-02-06T14:04:24.869Z,7.60
2023-02-06T14:07:07.288Z,7.43
2023-02-06T14:10:05.203Z,8.25
2023-02-06T14:12:46.983Z,11.63
2023-02-06T14:15:21.932Z,10.85
2023-02-06T14:18:04.344Z,14.67
2023-02-06T14:20:49.964Z,13.63
2023-02-06T14:23:45.387Z,8.55
2023-02-06T14:26:35.133Z,16.77
2023-02-06T14:29:23.735Z,8.90
2023-02-06T14:32:02.007Z,9.45
2023-02-06T14:34:58.980Z,8.23
2023-02-06T14:38:03.494Z,8.57
2023-02-06T14:40:36.460Z,16.38
2023-02-06T14:43:05.912Z,19.77
2023-02-06T14:45:41.598Z,11.55
2023-02-06T14:48:19.854Z,10.77
2023-02-06T14:50:50.730Z,9.80
2023-02-06T14:53:29.189Z,11.20
2023-02-06T14:56:23.721Z,12.25
2023-02-06T14:58:51.283Z,8.25
2023-02-06T15:01:17.622Z,8.25
2023-02-06T15:03:45.647Z,14.80
2023-02-06T15:06:34.708Z,11.23
2023-02-06T15:09:01.602Z,8.55
2023-02-06T15:11:33.043Z,8.40
2023-02-06T15:14:02.499Z,8.68
2023-02-06T15:16:30.362Z,9.85
2023-02-06T15:19:11.180Z,9.27
2023-02-06T15:21:39.757Z,8.85
2023-02-06T15:24:35.197Z,12.65
2023-02-06T15:27:27.403Z,8.85
2023-02-06T15:29:54.649Z,7.25
2023-02-06T15:32:37.897Z,8.35
2023-02-06T15:35:30.312Z,8.55
2023-02-06T15:38:03.692Z,8.25
2023-02-06T15:40:35.679Z,11.13
2023-02-06T15:43:03.033Z,10.25
2023-02-06T15:45:34.372Z,11.73
2023-02-06T15:48:23.476Z,17.88
2023-02-06T15:50:55.812Z,43.45
2023-02-06T15:53:31.485Z,20.00
2023-02-06T15:55:58.475Z,14.18
2023-02-06T15:58:26.016Z,14.85
2023-02-06T16:00:55.482Z,20.55
2023-02-06T16:03:25.784Z,30.48
2023-02-06T16:05:52.727Z,24.98
2023-02-06T16:08:32.034Z,20.45
2023-02-06T16:11:29.758Z,13.80
2023-02-06T16:13:57.202Z,15.80
2023-02-06T16:16:26.118Z,14.75
2023-02-06T16:18:54.989Z,12.10
2023-02-06T16:21:30.910Z,11.85
2023-02-06T16:24:02.567Z,13.85
2023-02-06T16:26:41.772Z,12.32
2023-02-06T16:29:08.056Z,14.65
2023-02-06T16:31:39.661Z,22.33
2023-02-06T16:34:43.113Z,17.77
2023-02-06T16:37:13.343Z,17.05
2023-02-06T16:39:44.332Z,12.10
2023-02-06T16:42:15.612Z,11.60
2023-02-06T16:44:45.820Z,10.70
2023-02-06T16:47:15.350Z,14.88
2023-02-06T16:49:43.117Z,14.50
2023-02-06T16:52:18.152Z,10.57
2023-02-06T16:54:45.664Z,11.63
2023-02-06T16:57:22.346Z,12.48
2023-02-06T16:59:48.886Z,54.30
2023-02-06T17:02:15.622Z,49.30
2023-02-06T17:04:42.375Z,35.17
2023-02-06T17:07:18.051Z,25.98
2023-02-06T17:09:45.277Z,23.77
2023-02-06T17:12:14.121Z,22.73
2023-02-06T17:14:42.542Z,22.88
2023-02-06T17:17:14.226Z,18.42
2023-02-06T17:19:40.707Z,19.10
2023-02-06T17:22:09.110Z,16.27
2023-02-06T17:24:36.417Z,18.92
2023-02-06T17:27:04.565Z,20.10
2023-02-06T17:29:34.159Z,18.73
2023-02-06T17:32:01.823Z,28.13
2023-02-06T17:34:30.195Z,26.90
2023-02-06T17:36:56.972Z,27.15
2023-02-06T17:39:23.612Z,27.30
2023-02-06T17:41:50.554Z,24.55
2023-02-06T17:44:18.666Z,22.35
2023-02-06T17:46:47.012Z,22.98
2023-02-06T17:49:14.389Z,20.95
2023-02-06T17:51:42.088Z,20.35
2023-02-06T17:54:09.209Z,20.35
2023-02-06T17:56:36.546Z,20.17
2023-02-06T17:59:03.325Z,19.60
2023-02-06T18:01:30.194Z,22.23
2023-02-06T18:03:56.792Z,21.52
2023-02-06T18:06:23.430Z,27.88
2023-02-06T18:08:49.763Z,27.95
2023-02-06T18:11:19.193Z,30.27
2023-02-06T18:13:48.213Z,25.02
2023-02-06T18:16:18.708Z,25.83
2023-02-06T18:18:45.682Z,29.33
2023-02-06T18:21:12.105Z,29.27
2023-02-06T18:23:39.301Z,26.23
2023-02-06T18:26:09.313Z,27.90
2023-02-06T18:28:39.279Z,27.05
2023-02-06T18:31:19.368Z,25.08
2023-02-06T18:33:45.942Z,23.40
2023-02-06T18:36:12.299Z,26.38
2023-02-06T18:38:38.785Z,24.65
2023-02-06T18:41:06.214Z,23.52
2023-02-06T18:43:33.139Z,22.85
2023-02-06T18:46:06.958Z,22.73
2023-02-06T18:48:33.378Z,21.42
2023-02-06T18:51:00.755Z,23.15
2023-02-06T18:53:27.137Z,40.90
2023-02-06T18:55:58.347Z,46.67
2023-02-06T18:58:24.682Z,46.33
2023-02-06T19:00:51.038Z,52.97
2023-02-06T19:03:17.463Z,128.45
2023-02-06T19:05:43.875Z,56.88
2023-02-06T19:08:10.239Z,57.78
2023-02-06T19:10:36.893Z,48.75
2023-02-06T19:13:03.753Z,41.30
2023-02-06T19:15:30.825Z,34.65
2023-02-06T19:17:57.320Z,26.80
2023-02-06T19:20:23.723Z,23.48
2023-02-06T19:22:51.586Z,22.73
2023-02-06T19:25:19.144Z,20.88
2023-02-06T19:27:45.702Z,18.98
2023-02-06T19:30:13.467Z,18.92
2023-02-06T19:32:39.972Z,17.45
2023-02-06T19:35:06.758Z,16.45
2023-02-06T19:37:33.249Z,17.70
2023-02-06T19:39:59.600Z,18.52
2023-02-06T19:42:25.968Z,17.67
2023-02-06T19:44:56.156Z,17.20
2023-02-06T19:47:22.929Z,18.60
2023-02-06T19:49:51.786Z,21.73
2023-02-06T19:52:18.633Z,17.83
2023-02-06T19:54:45.384Z,17.98
2023-02-06T19:57:11.716Z,18.52
2023-02-06T19:59:38.092Z,19.30
2023-02-06T20:02:04.530Z,20.30
2023-02-06T20:04:34.545Z,19.70
2023-02-06T20:07:01.831Z,19.40
2023-02-06T20:09:28.501Z,18.90
2023-02-06T20:11:56.016Z,19.00
2023-02-06T20:14:23.440Z,20.08
2023-02-06T20:16:50.227Z,20.40
2023-02-06T20:19:20.968Z,17.60
2023-02-06T20:21:50.189Z,18.77
2023-02-06T20:24:21.753Z,18.75
2023-02-06T20:26:51.229Z,22.80
2023-02-06T20:29:27.654Z,22.30
2023-02-06T20:31:54.994Z,23.83
2023-02-06T20:34:22.176Z,22.92
2023-02-06T20:36:49.599Z,21.25
2023-02-06T20:39:16.608Z,22.90
2023-02-06T20:41:43.942Z,23.00
2023-02-06T20:44:11.853Z,21.17
2023-02-06T20:46:39.535Z,25.55
2023-02-06T20:49:12.321Z,19.90
2023-02-06T20:51:38.692Z,18.42
2023-02-06T20:54:06.461Z,15.05
2023-02-06T20:56:34.444Z,15.57
2023-02-06T20:59:01.283Z,14.95
2023-02-06T21:01:29.628Z,14.57
2023-02-06T21:03:58.804Z,13.10
2023-02-06T21:06:25.793Z,14.52
2023-02-06T21:08:56.502Z,12.88
2023-02-06T21:11:23.022Z,12.40
2023-02-06T21:13:49.546Z,12.23
2023-02-06T21:16:15.875Z,14.18
2023-02-06T21:18:42.621Z,16.20
2023-02-06T21:21:12.853Z,16.27
2023-02-06T21:23:41.120Z,16.70
2023-02-06T21:26:09.523Z,15.80
2023-02-06T21:28:36.857Z,16.60
2023-02-06T21:31:09.375Z,14.43
2023-02-06T21:33:36.944Z,14.02
2023-02-06T21:36:06.657Z,14.57
2023-02-06T21:38:34.645Z,14.38
2023-02-06T21:41:13.724Z,13.90
2023-02-06T21:43:40.483Z,14.50
2023-02-06T21:46:07.641Z,15.23
2023-02-06T21:48:34.833Z,14.48
2023-02-06T21:51:15.925Z,14.30
2023-02-06T21:53:44.074Z,14.73
2023-02-06T21:56:23.192Z,14.55
2023-02-06T21:58:50.450Z,14.07
2023-02-06T22:01:23.839Z,14.38
2023-02-06T22:03:50.909Z,13.68
2023-02-06T22:06:19.756Z,13.35
2023-02-06T22:08:48.266Z,13.82
2023-02-06T22:11:20.732Z,14.57
2023-02-06T22:13:48.054Z,13.82
2023-02-06T22:16:18.911Z,15.07
2023-02-06T22:18:45.443Z,15.77
2023-02-06T22:21:18.944Z,14.80
2023-02-06T22:23:47.040Z,14.48
2023-02-06T22:26:16.507Z,13.85
2023-02-06T22:28:43.640Z,13.68
2023-02-06T22:31:19.354Z,13.70
2023-02-06T22:33:46.518Z,13.05
2023-02-06T22:36:15.384Z,12.75
2023-02-06T22:38:45.141Z,13.15
2023-02-06T22:41:15.582Z,13.70
2023-02-06T22:43:43.493Z,12.27
2023-02-06T22:46:16.782Z,13.43
2023-02-06T22:48:43.164Z,13.25
2023-02-06T22:51:10.600Z,13.60
2023-02-06T22:53:38.317Z,12.18
2023-02-06T22:56:31.926Z,11.38
2023-02-06T22:59:07.421Z,11.27
2023-02-06T23:01:42.853Z,11.63
2023-02-06T23:04:16.613Z,11.05
2023-02-06T23:06:43.840Z,10.90
2023-02-06T23:09:14.306Z,11.82
2023-02-06T23:11:41.080Z,11.43
2023-02-06T23:14:07.576Z,10.15
2023-02-06T23:16:35.323Z,9.75
2023-02-06T23:19:04.480Z,9.20
2023-02-06T23:21:32.318Z,9.30
2023-02-06T23:24:00.662Z,9.23
2023-02-06T23:26:28.088Z,9.55
2023-02-06T23:28:57.387Z,8.70
2023-02-06T23:31:24.640Z,9.05
2023-02-06T23:33:52.007Z,8.27
2023-02-06T23:36:20.724Z,9.65
2023-02-06T23:38:47.962Z,9.60
2023-02-06T23:41:18.019Z,9.35
2023-02-06T23:43:48.782Z,9.02
2023-02-06T23:46:15.432Z,9.23
2023-02-06T23:48:41.831Z,8.85
2023-02-06T23:51:08.224Z,9.80
2023-02-06T23:53:34.795Z,10.30
2023-02-06T23:56:01.136Z,11.13
2023-02-06T23:58:27.742Z,10.75
